sensor_id;sensor_type;location;lat;lon;timestamp;P1;durP1;ratioP1;P2;durP2;ratioP2
20320;SDS011;10318;47.674;9.052;2022-10-22T00:01:37;4.30;;;1.77;;
20320;SDS011;10318;47.674;9.052;2022-10-22T00:04:04;5.90;;;1.77;;
20320;SDS011;10318;47.674;9.052;2022-10-22T00:06:31;1.85;;;1.10;;
20320;SDS011;10318;47.674;9.052;2022-10-22T00:08:58;1.95;;;0.85;;
20320;SDS011;10318;47.674;9.052;2022-10-22T00:11:24;0.82;;;0.70;;
20320;SDS011;10318;47.674;9.052;2022-10-22T00:13:51;4.43;;;0.80;;
20320;SDS011;10318;47.674;9.052;2022-10-22T00:16:18;1.10;;;0.75;;
20320;SDS011;10318;47.674;9.052;2022-10-22T00:18:44;4.50;;;0.63;;
20320;SDS011;10318;47.674;9.052;2022-10-22T00:21:11;5.53;;;0.90;;
20320;SDS011;10318;47.674;9.052;2022-10-22T00:23:41;2.65;;;1.10;;
20320;SDS011;10318;47.674;9.052;2022-10-22T00:26:09;3.72;;;0.60;;
20320;SDS011;10318;47.674;9.052;2022-10-22T00:28:36;3.45;;;0.70;;
20320;SDS011;10318;47.674;9.052;2022-10-22T00:31:03;3.00;;;0.82;;
20320;SDS011;10318;47.674;9.052;2022-10-22T00:33:30;4.05;;;0.90;;
20320;SDS011;10318;47.674;9.052;2022-10-22T00:35:57;2.70;;;0.90;;
20320;SDS011;10318;47.674;9.052;2022-10-22T00:38:23;2.10;;;1.00;;
20320;SDS011;10318;47.674;9.052;2022-10-22T00:40:50;3.45;;;0.80;;
20320;SDS011;10318;47.674;9.052;2022-10-22T00:43:17;1.80;;;0.50;;
20320;SDS011;10318;47.674;9.052;2022-10-22T00:45:44;2.50;;;0.65;;
20320;SDS011;10318;47.674;9.052;2022-10-22T00:48:21;0.40;;;0.40;;
20320;SDS011;10318;47.674;9.052;2022-10-22T00:50:49;0.80;;;0.50;;
20320;SDS011;10318;47.674;9.052;2022-10-22T00:53:36;2.88;;;0.65;;
20320;SDS011;10318;47.674;9.052;2022-10-22T00:56:04;1.38;;;0.60;;
20320;SDS011;10318;47.674;9.052;2022-10-22T00:58:33;3.88;;;0.93;;
20320;SDS011;10318;47.674;9.052;2022-10-22T01:01:00;10.32;;;1.17;;
20320;SDS011;10318;47.674;9.052;2022-10-22T01:03:27;3.17;;;0.47;;
20320;SDS011;10318;47.674;9.052;2022-10-22T01:05:57;2.53;;;0.60;;
20320;SDS011;10318;47.674;9.052;2022-10-22T01:11:19;3.00;;;0.50;;
20320;SDS011;10318;47.674;9.052;2022-10-22T01:16:16;3.65;;;0.73;;
20320;SDS011;10318;47.674;9.052;2022-10-22T01:18:53;1.70;;;0.70;;
20320;SDS011;10318;47.674;9.052;2022-10-22T01:24:09;3.50;;;0.70;;
20320;SDS011;10318;47.674;9.052;2022-10-22T01:29:26;1.02;;;0.47;;
20320;SDS011;10318;47.674;9.052;2022-10-22T01:31:58;3.50;;;0.75;;
20320;SDS011;10318;47.674;9.052;2022-10-22T01:34:26;1.15;;;0.40;;
20320;SDS011;10318;47.674;9.052;2022-10-22T01:36:53;4.20;;;0.63;;
20320;SDS011;10318;47.674;9.052;2022-10-22T01:39:20;2.70;;;0.98;;
20320;SDS011;10318;47.674;9.052;2022-10-22T01:41:48;3.03;;;0.60;;
20320;SDS011;10318;47.674;9.052;2022-10-22T01:50:31;3.92;;;0.82;;
20320;SDS011;10318;47.674;9.052;2022-10-22T01:55:14;3.05;;;0.65;;
20320;SDS011;10318;47.674;9.052;2022-10-22T02:00:20;2.47;;;0.50;;
20320;SDS011;10318;47.674;9.052;2022-10-22T02:03:05;0.40;;;0.40;;
20320;SDS011;10318;47.674;9.052;2022-10-22T02:05:43;4.40;;;0.98;;
20320;SDS011;10318;47.674;9.052;2022-10-22T02:08:13;2.58;;;0.50;;
20320;SDS011;10318;47.674;9.052;2022-10-22T02:10:41;2.33;;;0.88;;
20320;SDS011;10318;47.674;9.052;2022-10-22T02:13:11;0.70;;;0.50;;
20320;SDS011;10318;47.674;9.052;2022-10-22T02:15:39;0.40;;;0.40;;
20320;SDS011;10318;47.674;9.052;2022-10-22T02:18:06;1.17;;;0.70;;
20320;SDS011;10318;47.674;9.052;2022-10-22T02:20:34;3.20;;;0.47;;
20320;SDS011;10318;47.674;9.052;2022-10-22T02:23:02;2.88;;;0.50;;
20320;SDS011;10318;47.674;9.052;2022-10-22T02:25:31;1.67;;;0.50;;
20320;SDS011;10318;47.674;9.052;2022-10-22T02:30:24;2.30;;;0.52;;
20320;SDS011;10318;47.674;9.052;2022-10-22T02:35:33;2.28;;;0.45;;
20320;SDS011;10318;47.674;9.052;2022-10-22T02:38:00;1.15;;;0.50;;
20320;SDS011;10318;47.674;9.052;2022-10-22T02:40:27;3.40;;;0.50;;
20320;SDS011;10318;47.674;9.052;2022-10-22T02:42:55;0.95;;;0.50;;
20320;SDS011;10318;47.674;9.052;2022-10-22T02:45:22;0.47;;;0.40;;
20320;SDS011;10318;47.674;9.052;2022-10-22T02:47:49;3.20;;;0.55;;
20320;SDS011;10318;47.674;9.052;2022-10-22T02:50:16;3.45;;;0.57;;
20320;SDS011;10318;47.674;9.052;2022-10-22T02:52:43;0.60;;;0.40;;
20320;SDS011;10318;47.674;9.052;2022-10-22T02:55:09;0.68;;;0.43;;
20320;SDS011;10318;47.674;9.052;2022-10-22T02:57:36;7.80;;;0.80;;
20320;SDS011;10318;47.674;9.052;2022-10-22T03:00:04;5.75;;;0.52;;
20320;SDS011;10318;47.674;9.052;2022-10-22T03:02:31;1.30;;;0.60;;
20320;SDS011;10318;47.674;9.052;2022-10-22T03:04:58;0.95;;;0.55;;
20320;SDS011;10318;47.674;9.052;2022-10-22T03:07:25;1.52;;;0.52;;
20320;SDS011;10318;47.674;9.052;2022-10-22T03:09:52;2.70;;;0.60;;
20320;SDS011;10318;47.674;9.052;2022-10-22T03:12:18;5.25;;;0.60;;
20320;SDS011;10318;47.674;9.052;2022-10-22T03:14:45;6.15;;;0.60;;
20320;SDS011;10318;47.674;9.052;2022-10-22T03:17:12;0.80;;;0.57;;
20320;SDS011;10318;47.674;9.052;2022-10-22T03:19:38;2.20;;;0.40;;
20320;SDS011;10318;47.674;9.052;2022-10-22T03:22:06;3.42;;;0.50;;
20320;SDS011;10318;47.674;9.052;2022-10-22T03:24:36;3.38;;;0.50;;
20320;SDS011;10318;47.674;9.052;2022-10-22T03:27:03;2.10;;;0.65;;
20320;SDS011;10318;47.674;9.052;2022-10-22T03:29:30;12.35;;;0.77;;
20320;SDS011;10318;47.674;9.052;2022-10-22T03:31:58;1.67;;;0.60;;
20320;SDS011;10318;47.674;9.052;2022-10-22T03:34:25;2.30;;;0.65;;
20320;SDS011;10318;47.674;9.052;2022-10-22T03:36:51;1.55;;;0.40;;
20320;SDS011;10318;47.674;9.052;2022-10-22T03:39:19;1.45;;;0.35;;
20320;SDS011;10318;47.674;9.052;2022-10-22T03:41:46;3.90;;;0.80;;
20320;SDS011;10318;47.674;9.052;2022-10-22T03:44:14;0.98;;;0.50;;
20320;SDS011;10318;47.674;9.052;2022-10-22T03:46:41;1.67;;;0.40;;
20320;SDS011;10318;47.674;9.052;2022-10-22T03:49:08;1.42;;;0.35;;
20320;SDS011;10318;47.674;9.052;2022-10-22T03:51:34;2.63;;;0.55;;
20320;SDS011;10318;47.674;9.052;2022-10-22T03:54:01;2.47;;;0.55;;
20320;SDS011;10318;47.674;9.052;2022-10-22T03:56:28;3.30;;;0.40;;
20320;SDS011;10318;47.674;9.052;2022-10-22T03:58:55;1.30;;;0.60;;
20320;SDS011;10318;47.674;9.052;2022-10-22T04:01:22;1.30;;;0.35;;
20320;SDS011;10318;47.674;9.052;2022-10-22T04:03:49;2.53;;;0.55;;
20320;SDS011;10318;47.674;9.052;2022-10-22T04:06:16;0.45;;;0.30;;
20320;SDS011;10318;47.674;9.052;2022-10-22T04:08:43;2.28;;;0.43;;
20320;SDS011;10318;47.674;9.052;2022-10-22T04:11:11;1.73;;;0.52;;
20320;SDS011;10318;47.674;9.052;2022-10-22T04:13:38;0.68;;;0.50;;
20320;SDS011;10318;47.674;9.052;2022-10-22T04:16:12;0.95;;;0.55;;
20320;SDS011;10318;47.674;9.052;2022-10-22T04:18:39;8.38;;;0.52;;
20320;SDS011;10318;47.674;9.052;2022-10-22T04:21:06;0.45;;;0.30;;
20320;SDS011;10318;47.674;9.052;2022-10-22T04:23:33;0.77;;;0.57;;
20320;SDS011;10318;47.674;9.052;2022-10-22T04:26:00;1.17;;;0.52;;
20320;SDS011;10318;47.674;9.052;2022-10-22T04:28:28;1.25;;;0.60;;
20320;SDS011;10318;47.674;9.052;2022-10-22T04:30:54;0.63;;;0.50;;
20320;SDS011;10318;47.674;9.052;2022-10-22T04:33:21;2.75;;;0.52;;
20320;SDS011;10318;47.674;9.052;2022-10-22T04:35:47;1.33;;;0.70;;
20320;SDS011;10318;47.674;9.052;2022-10-22T04:38:14;4.28;;;0.77;;
20320;SDS011;10318;47.674;9.052;2022-10-22T04:40:41;1.17;;;0.70;;
20320;SDS011;10318;47.674;9.052;2022-10-22T04:43:08;1.55;;;0.60;;
20320;SDS011;10318;47.674;9.052;2022-10-22T04:45:35;0.75;;;0.70;;
20320;SDS011;10318;47.674;9.052;2022-10-22T04:48:01;1.95;;;0.85;;
20320;SDS011;10318;47.674;9.052;2022-10-22T04:50:28;0.65;;;0.65;;
20320;SDS011;10318;47.674;9.052;2022-10-22T04:52:55;0.75;;;0.50;;
20320;SDS011;10318;47.674;9.052;2022-10-22T04:55:21;1.50;;;0.63;;
20320;SDS011;10318;47.674;9.052;2022-10-22T04:57:48;0.70;;;0.65;;
20320;SDS011;10318;47.674;9.052;2022-10-22T05:00:15;4.50;;;0.80;;
20320;SDS011;10318;47.674;9.052;2022-10-22T05:02:42;1.13;;;0.77;;
20320;SDS011;10318;47.674;9.052;2022-10-22T05:05:10;1.90;;;0.60;;
20320;SDS011;10318;47.674;9.052;2022-10-22T05:07:37;2.67;;;0.80;;
20320;SDS011;10318;47.674;9.052;2022-10-22T05:10:04;2.83;;;0.50;;
20320;SDS011;10318;47.674;9.052;2022-10-22T05:12:31;2.88;;;0.85;;
20320;SDS011;10318;47.674;9.052;2022-10-22T05:14:57;2.42;;;0.80;;
20320;SDS011;10318;47.674;9.052;2022-10-22T05:17:24;0.98;;;0.55;;
20320;SDS011;10318;47.674;9.052;2022-10-22T05:19:51;2.22;;;1.00;;
20320;SDS011;10318;47.674;9.052;2022-10-22T05:22:18;2.92;;;1.13;;
20320;SDS011;10318;47.674;9.052;2022-10-22T05:24:44;0.90;;;0.80;;
20320;SDS011;10318;47.674;9.052;2022-10-22T05:27:11;0.90;;;0.75;;
20320;SDS011;10318;47.674;9.052;2022-10-22T05:29:38;1.17;;;0.60;;
20320;SDS011;10318;47.674;9.052;2022-10-22T05:32:04;2.08;;;0.75;;
20320;SDS011;10318;47.674;9.052;2022-10-22T05:34:31;0.98;;;0.60;;
20320;SDS011;10318;47.674;9.052;2022-10-22T05:36:58;3.90;;;1.15;;
20320;SDS011;10318;47.674;9.052;2022-10-22T05:39:25;1.27;;;0.50;;
20320;SDS011;10318;47.674;9.052;2022-10-22T05:41:51;3.33;;;0.90;;
20320;SDS011;10318;47.674;9.052;2022-10-22T05:44:19;1.67;;;0.93;;
20320;SDS011;10318;47.674;9.052;2022-10-22T05:46:45;2.17;;;0.73;;
20320;SDS011;10318;47.674;9.052;2022-10-22T05:49:13;4.45;;;0.80;;
20320;SDS011;10318;47.674;9.052;2022-10-22T05:51:40;0.68;;;0.60;;
20320;SDS011;10318;47.674;9.052;2022-10-22T05:54:07;2.42;;;0.68;;
20320;SDS011;10318;47.674;9.052;2022-10-22T05:56:36;3.13;;;1.83;;
20320;SDS011;10318;47.674;9.052;2022-10-22T05:59:03;10.65;;;4.75;;
20320;SDS011;10318;47.674;9.052;2022-10-22T06:01:31;4.60;;;2.35;;
20320;SDS011;10318;47.674;9.052;2022-10-22T06:04:00;4.57;;;1.08;;
20320;SDS011;10318;47.674;9.052;2022-10-22T06:09:01;2.25;;;1.10;;
20320;SDS011;10318;47.674;9.052;2022-10-22T06:11:28;0.82;;;0.70;;
20320;SDS011;10318;47.674;9.052;2022-10-22T06:14:00;4.25;;;0.98;;
20320;SDS011;10318;47.674;9.052;2022-10-22T06:16:31;2.97;;;1.08;;
20320;SDS011;10318;47.674;9.052;2022-10-22T06:18:58;3.28;;;1.02;;
20320;SDS011;10318;47.674;9.052;2022-10-22T06:21:26;5.40;;;0.82;;
20320;SDS011;10318;47.674;9.052;2022-10-22T06:23:56;1.00;;;0.80;;
20320;SDS011;10318;47.674;9.052;2022-10-22T06:26:23;6.72;;;0.80;;
20320;SDS011;10318;47.674;9.052;2022-10-22T06:28:50;1.77;;;0.70;;
20320;SDS011;10318;47.674;9.052;2022-10-22T06:31:16;1.30;;;0.50;;
20320;SDS011;10318;47.674;9.052;2022-10-22T06:33:43;6.97;;;0.90;;
20320;SDS011;10318;47.674;9.052;2022-10-22T06:36:10;2.03;;;0.90;;
20320;SDS011;10318;47.674;9.052;2022-10-22T06:38:38;0.85;;;0.60;;
20320;SDS011;10318;47.674;9.052;2022-10-22T06:41:06;5.50;;;0.85;;
20320;SDS011;10318;47.674;9.052;2022-10-22T06:43:33;2.97;;;0.90;;
20320;SDS011;10318;47.674;9.052;2022-10-22T06:46:01;7.43;;;2.70;;
20320;SDS011;10318;47.674;9.052;2022-10-22T06:48:28;9.82;;;6.32;;
20320;SDS011;10318;47.674;9.052;2022-10-22T06:50:54;8.20;;;5.18;;
20320;SDS011;10318;47.674;9.052;2022-10-22T06:53:21;7.30;;;4.90;;
20320;SDS011;10318;47.674;9.052;2022-10-22T06:55:48;3.95;;;2.38;;
20320;SDS011;10318;47.674;9.052;2022-10-22T06:58:14;5.78;;;1.65;;
20320;SDS011;10318;47.674;9.052;2022-10-22T07:00:41;5.53;;;3.45;;
20320;SDS011;10318;47.674;9.052;2022-10-22T07:03:10;5.78;;;2.10;;
20320;SDS011;10318;47.674;9.052;2022-10-22T07:05:37;7.50;;;4.47;;
20320;SDS011;10318;47.674;9.052;2022-10-22T07:08:04;3.17;;;2.88;;
20320;SDS011;10318;47.674;9.052;2022-10-22T07:10:31;4.93;;;1.65;;
20320;SDS011;10318;47.674;9.052;2022-10-22T07:12:58;1.67;;;1.25;;
20320;SDS011;10318;47.674;9.052;2022-10-22T07:15:24;2.78;;;1.42;;
20320;SDS011;10318;47.674;9.052;2022-10-22T07:17:51;2.92;;;1.00;;
20320;SDS011;10318;47.674;9.052;2022-10-22T07:20:18;1.95;;;0.93;;
20320;SDS011;10318;47.674;9.052;2022-10-22T07:22:46;3.65;;;1.40;;
20320;SDS011;10318;47.674;9.052;2022-10-22T07:25:13;2.33;;;1.30;;
20320;SDS011;10318;47.674;9.052;2022-10-22T07:27:39;2.50;;;1.13;;
20320;SDS011;10318;47.674;9.052;2022-10-22T07:30:07;3.08;;;1.35;;
20320;SDS011;10318;47.674;9.052;2022-10-22T07:32:33;16.20;;;2.22;;
20320;SDS011;10318;47.674;9.052;2022-10-22T07:35:00;5.18;;;1.23;;
20320;SDS011;10318;47.674;9.052;2022-10-22T07:37:27;2.28;;;1.05;;
20320;SDS011;10318;47.674;9.052;2022-10-22T07:39:53;1.63;;;1.10;;
20320;SDS011;10318;47.674;9.052;2022-10-22T07:42:20;1.35;;;0.90;;
20320;SDS011;10318;47.674;9.052;2022-10-22T07:44:46;6.43;;;1.52;;
20320;SDS011;10318;47.674;9.052;2022-10-22T07:47:13;5.65;;;1.50;;
20320;SDS011;10318;47.674;9.052;2022-10-22T07:49:40;6.88;;;1.60;;
20320;SDS011;10318;47.674;9.052;2022-10-22T07:52:06;6.63;;;1.63;;
20320;SDS011;10318;47.674;9.052;2022-10-22T07:54:33;2.47;;;1.10;;
20320;SDS011;10318;47.674;9.052;2022-10-22T07:57:00;3.40;;;1.20;;
20320;SDS011;10318;47.674;9.052;2022-10-22T07:59:26;1.00;;;0.75;;
20320;SDS011;10318;47.674;9.052;2022-10-22T08:01:53;5.45;;;1.00;;
20320;SDS011;10318;47.674;9.052;2022-10-22T08:04:19;5.68;;;1.23;;
20320;SDS011;10318;47.674;9.052;2022-10-22T08:06:46;4.00;;;0.90;;
20320;SDS011;10318;47.674;9.052;2022-10-22T08:09:13;1.08;;;0.90;;
20320;SDS011;10318;47.674;9.052;2022-10-22T08:11:40;5.78;;;1.00;;
20320;SDS011;10318;47.674;9.052;2022-10-22T08:14:07;2.60;;;1.38;;
20320;SDS011;10318;47.674;9.052;2022-10-22T08:16:34;3.00;;;1.20;;
20320;SDS011;10318;47.674;9.052;2022-10-22T08:19:00;3.00;;;1.40;;
20320;SDS011;10318;47.674;9.052;2022-10-22T08:21:27;1.73;;;0.90;;
20320;SDS011;10318;47.674;9.052;2022-10-22T08:23:54;4.78;;;1.05;;
20320;SDS011;10318;47.674;9.052;2022-10-22T08:26:21;2.90;;;1.10;;
20320;SDS011;10318;47.674;9.052;2022-10-22T08:28:47;11.57;;;1.20;;
20320;SDS011;10318;47.674;9.052;2022-10-22T08:31:14;3.35;;;1.00;;
20320;SDS011;10318;47.674;9.052;2022-10-22T08:33:41;3.22;;;1.33;;
20320;SDS011;10318;47.674;9.052;2022-10-22T08:36:08;5.22;;;1.30;;
20320;SDS011;10318;47.674;9.052;2022-10-22T08:38:35;4.50;;;0.93;;
20320;SDS011;10318;47.674;9.052;2022-10-22T08:41:06;3.17;;;1.20;;
20320;SDS011;10318;47.674;9.052;2022-10-22T08:43:57;6.60;;;1.10;;
20320;SDS011;10318;47.674;9.052;2022-10-22T08:46:33;1.92;;;1.00;;
20320;SDS011;10318;47.674;9.052;2022-10-22T08:49:06;1.15;;;0.90;;
20320;SDS011;10318;47.674;9.052;2022-10-22T08:51:39;2.10;;;1.05;;
20320;SDS011;10318;47.674;9.052;2022-10-22T08:57:38;3.67;;;1.40;;
20320;SDS011;10318;47.674;9.052;2022-10-22T09:05:01;1.42;;;1.10;;
20320;SDS011;10318;47.674;9.052;2022-10-22T09:07:39;1.55;;;1.20;;
20320;SDS011;10318;47.674;9.052;2022-10-22T09:10:07;3.13;;;1.50;;
20320;SDS011;10318;47.674;9.052;2022-10-22T09:12:34;2.20;;;1.02;;
20320;SDS011;10318;47.674;9.052;2022-10-22T09:15:01;2.35;;;1.35;;
20320;SDS011;10318;47.674;9.052;2022-10-22T09:17:39;1.42;;;1.33;;
20320;SDS011;10318;47.674;9.052;2022-10-22T09:20:10;2.88;;;1.60;;
20320;SDS011;10318;47.674;9.052;2022-10-22T09:25:26;5.30;;;1.60;;
20320;SDS011;10318;47.674;9.052;2022-10-22T09:27:53;4.18;;;1.90;;
20320;SDS011;10318;47.674;9.052;2022-10-22T09:30:27;3.63;;;1.48;;
20320;SDS011;10318;47.674;9.052;2022-10-22T09:32:59;1.50;;;1.38;;
20320;SDS011;10318;47.674;9.052;2022-10-22T09:35:26;2.15;;;1.30;;
20320;SDS011;10318;47.674;9.052;2022-10-22T09:37:54;3.17;;;1.40;;
20320;SDS011;10318;47.674;9.052;2022-10-22T09:40:21;2.50;;;1.10;;
20320;SDS011;10318;47.674;9.052;2022-10-22T09:42:48;1.63;;;1.10;;
20320;SDS011;10318;47.674;9.052;2022-10-22T09:45:17;2.40;;;1.15;;
20320;SDS011;10318;47.674;9.052;2022-10-22T09:47:44;1.20;;;1.10;;
20320;SDS011;10318;47.674;9.052;2022-10-22T09:53:03;2.55;;;1.30;;
20320;SDS011;10318;47.674;9.052;2022-10-22T09:55:31;2.13;;;1.40;;
20320;SDS011;10318;47.674;9.052;2022-10-22T09:57:58;7.90;;;1.38;;
20320;SDS011;10318;47.674;9.052;2022-10-22T10:00:25;1.40;;;1.20;;
20320;SDS011;10318;47.674;9.052;2022-10-22T10:02:53;2.00;;;1.40;;
20320;SDS011;10318;47.674;9.052;2022-10-22T10:05:24;1.48;;;1.30;;
20320;SDS011;10318;47.674;9.052;2022-10-22T10:07:51;1.38;;;1.08;;
20320;SDS011;10318;47.674;9.052;2022-10-22T10:10:20;2.85;;;1.27;;
20320;SDS011;10318;47.674;9.052;2022-10-22T10:15:19;2.80;;;1.00;;
20320;SDS011;10318;47.674;9.052;2022-10-22T10:20:51;2.42;;;1.50;;
20320;SDS011;10318;47.674;9.052;2022-10-22T10:23:30;1.48;;;1.15;;
20320;SDS011;10318;47.674;9.052;2022-10-22T10:26:07;2.03;;;1.10;;
20320;SDS011;10318;47.674;9.052;2022-10-22T10:39:23;2.55;;;0.90;;
20320;SDS011;10318;47.674;9.052;2022-10-22T10:42:02;2.45;;;0.70;;
20320;SDS011;10318;47.674;9.052;2022-10-22T10:49:53;1.13;;;0.82;;
20320;SDS011;10318;47.674;9.052;2022-10-22T10:55:12;1.38;;;0.60;;
20320;SDS011;10318;47.674;9.052;2022-10-22T11:00:13;1.85;;;1.00;;
20320;SDS011;10318;47.674;9.052;2022-10-22T11:07:41;3.72;;;0.65;;
20320;SDS011;10318;47.674;9.052;2022-10-22T11:13:01;1.05;;;0.70;;
20320;SDS011;10318;47.674;9.052;2022-10-22T11:17:57;3.25;;;0.90;;
20320;SDS011;10318;47.674;9.052;2022-10-22T11:20:36;2.22;;;0.77;;
20320;SDS011;10318;47.674;9.052;2022-10-22T11:23:05;2.42;;;0.60;;
20320;SDS011;10318;47.674;9.052;2022-10-22T11:25:50;3.67;;;1.00;;
20320;SDS011;10318;47.674;9.052;2022-10-22T11:30:48;3.05;;;0.90;;
20320;SDS011;10318;47.674;9.052;2022-10-22T11:33:18;1.38;;;0.80;;
20320;SDS011;10318;47.674;9.052;2022-10-22T11:35:48;2.10;;;1.10;;
20320;SDS011;10318;47.674;9.052;2022-10-22T11:38:16;0.88;;;0.88;;
20320;SDS011;10318;47.674;9.052;2022-10-22T11:40:47;4.25;;;1.00;;
20320;SDS011;10318;47.674;9.052;2022-10-22T11:43:26;2.25;;;1.08;;
20320;SDS011;10318;47.674;9.052;2022-10-22T11:45:57;1.95;;;0.75;;
20320;SDS011;10318;47.674;9.052;2022-10-22T11:48:27;2.10;;;0.73;;
20320;SDS011;10318;47.674;9.052;2022-10-22T11:50:55;2.72;;;0.80;;
20320;SDS011;10318;47.674;9.052;2022-10-22T11:53:34;1.10;;;0.70;;
20320;SDS011;10318;47.674;9.052;2022-10-22T11:58:39;1.17;;;0.80;;
20320;SDS011;10318;47.674;9.052;2022-10-22T12:08:45;2.30;;;1.02;;
20320;SDS011;10318;47.674;9.052;2022-10-22T12:11:13;1.27;;;0.80;;
20320;SDS011;10318;47.674;9.052;2022-10-22T12:16:28;4.88;;;1.10;;
20320;SDS011;10318;47.674;9.052;2022-10-22T12:19:25;3.65;;;1.00;;
20320;SDS011;10318;47.674;9.052;2022-10-22T12:21:53;1.98;;;0.82;;
20320;SDS011;10318;47.674;9.052;2022-10-22T12:24:21;2.67;;;0.90;;
20320;SDS011;10318;47.674;9.052;2022-10-22T12:26:48;1.63;;;0.75;;
20320;SDS011;10318;47.674;9.052;2022-10-22T12:29:19;1.95;;;0.65;;
20320;SDS011;10318;47.674;9.052;2022-10-22T12:31:48;1.33;;;0.80;;
20320;SDS011;10318;47.674;9.052;2022-10-22T12:34:16;2.50;;;0.73;;
20320;SDS011;10318;47.674;9.052;2022-10-22T12:36:45;3.00;;;0.90;;
20320;SDS011;10318;47.674;9.052;2022-10-22T12:39:16;8.02;;;0.90;;
20320;SDS011;10318;47.674;9.052;2022-10-22T12:41:43;1.05;;;0.70;;
20320;SDS011;10318;47.674;9.052;2022-10-22T12:44:14;4.57;;;0.88;;
20320;SDS011;10318;47.674;9.052;2022-10-22T12:46:43;2.28;;;0.70;;
20320;SDS011;10318;47.674;9.052;2022-10-22T12:49:15;3.50;;;1.00;;
20320;SDS011;10318;47.674;9.052;2022-10-22T12:51:43;4.38;;;0.98;;
20320;SDS011;10318;47.674;9.052;2022-10-22T12:54:15;4.13;;;0.90;;
20320;SDS011;10318;47.674;9.052;2022-10-22T12:56:43;2.60;;;0.60;;
20320;SDS011;10318;47.674;9.052;2022-10-22T12:59:21;1.77;;;0.75;;
20320;SDS011;10318;47.674;9.052;2022-10-22T13:01:48;2.88;;;1.13;;
20320;SDS011;10318;47.674;9.052;2022-10-22T13:06:49;10.45;;;2.03;;
20320;SDS011;10318;47.674;9.052;2022-10-22T13:09:17;4.43;;;1.55;;
20320;SDS011;10318;47.674;9.052;2022-10-22T13:11:52;3.85;;;1.13;;
20320;SDS011;10318;47.674;9.052;2022-10-22T13:14:30;6.75;;;0.90;;
20320;SDS011;10318;47.674;9.052;2022-10-22T13:17:08;2.65;;;0.98;;
20320;SDS011;10318;47.674;9.052;2022-10-22T13:19:39;1.95;;;1.38;;
20320;SDS011;10318;47.674;9.052;2022-10-22T13:24:48;1.95;;;0.63;;
20320;SDS011;10318;47.674;9.052;2022-10-22T13:27:16;3.70;;;1.17;;
20320;SDS011;10318;47.674;9.052;2022-10-22T13:29:43;5.05;;;1.00;;
20320;SDS011;10318;47.674;9.052;2022-10-22T13:32:29;1.25;;;0.60;;
20320;SDS011;10318;47.674;9.052;2022-10-22T13:34:57;1.90;;;0.95;;
20320;SDS011;10318;47.674;9.052;2022-10-22T13:37:25;2.72;;;0.80;;
20320;SDS011;10318;47.674;9.052;2022-10-22T13:39:53;1.88;;;0.75;;
20320;SDS011;10318;47.674;9.052;2022-10-22T13:42:19;2.00;;;0.70;;
20320;SDS011;10318;47.674;9.052;2022-10-22T13:44:46;2.50;;;0.75;;
20320;SDS011;10318;47.674;9.052;2022-10-22T13:47:21;2.88;;;0.70;;
20320;SDS011;10318;47.674;9.052;2022-10-22T13:49:51;6.60;;;1.10;;
20320;SDS011;10318;47.674;9.052;2022-10-22T13:52:36;4.60;;;1.08;;
20320;SDS011;10318;47.674;9.052;2022-10-22T13:55:23;3.85;;;0.77;;
20320;SDS011;10318;47.674;9.052;2022-10-22T13:57:51;1.05;;;0.63;;
20320;SDS011;10318;47.674;9.052;2022-10-22T14:00:19;4.68;;;0.90;;
20320;SDS011;10318;47.674;9.052;2022-10-22T14:02:47;4.32;;;0.80;;
20320;SDS011;10318;47.674;9.052;2022-10-22T14:05:15;5.75;;;1.00;;
20320;SDS011;10318;47.674;9.052;2022-10-22T14:07:42;3.75;;;1.05;;
20320;SDS011;10318;47.674;9.052;2022-10-22T14:10:22;2.83;;;0.93;;
20320;SDS011;10318;47.674;9.052;2022-10-22T14:12:50;2.10;;;1.05;;
20320;SDS011;10318;47.674;9.052;2022-10-22T14:15:25;5.82;;;1.00;;
20320;SDS011;10318;47.674;9.052;2022-10-22T14:17:54;1.77;;;0.77;;
20320;SDS011;10318;47.674;9.052;2022-10-22T14:20:22;2.90;;;0.70;;
20320;SDS011;10318;47.674;9.052;2022-10-22T14:22:49;5.03;;;0.88;;
20320;SDS011;10318;47.674;9.052;2022-10-22T14:25:17;4.32;;;0.98;;
20320;SDS011;10318;47.674;9.052;2022-10-22T14:27:44;9.40;;;1.40;;
20320;SDS011;10318;47.674;9.052;2022-10-22T14:30:12;4.78;;;0.90;;
20320;SDS011;10318;47.674;9.052;2022-10-22T14:32:39;10.45;;;1.10;;
20320;SDS011;10318;47.674;9.052;2022-10-22T14:35:08;7.80;;;1.30;;
20320;SDS011;10318;47.674;9.052;2022-10-22T14:37:35;5.05;;;0.85;;
20320;SDS011;10318;47.674;9.052;2022-10-22T14:40:02;8.27;;;1.52;;
20320;SDS011;10318;47.674;9.052;2022-10-22T14:42:28;22.33;;;1.90;;
20320;SDS011;10318;47.674;9.052;2022-10-22T14:44:55;6.47;;;1.63;;
20320;SDS011;10318;47.674;9.052;2022-10-22T14:47:22;2.45;;;1.20;;
20320;SDS011;10318;47.674;9.052;2022-10-22T14:49:48;5.38;;;1.00;;
20320;SDS011;10318;47.674;9.052;2022-10-22T14:52:15;2.88;;;0.95;;
20320;SDS011;10318;47.674;9.052;2022-10-22T14:54:42;15.75;;;1.73;;
20320;SDS011;10318;47.674;9.052;2022-10-22T14:57:08;11.45;;;1.98;;
20320;SDS011;10318;47.674;9.052;2022-10-22T14:59:36;10.43;;;2.30;;
20320;SDS011;10318;47.674;9.052;2022-10-22T15:02:03;13.68;;;3.08;;
20320;SDS011;10318;47.674;9.052;2022-10-22T15:04:30;17.33;;;2.20;;
20320;SDS011;10318;47.674;9.052;2022-10-22T15:06:56;6.15;;;2.50;;
20320;SDS011;10318;47.674;9.052;2022-10-22T15:09:24;14.43;;;2.00;;
20320;SDS011;10318;47.674;9.052;2022-10-22T15:11:51;20.83;;;3.65;;
20320;SDS011;10318;47.674;9.052;2022-10-22T15:14:17;10.07;;;2.28;;
20320;SDS011;10318;47.674;9.052;2022-10-22T15:16:44;5.38;;;1.30;;
20320;SDS011;10318;47.674;9.052;2022-10-22T15:19:10;2.60;;;0.95;;
20320;SDS011;10318;47.674;9.052;2022-10-22T15:21:37;6.45;;;1.15;;
20320;SDS011;10318;47.674;9.052;2022-10-22T15:24:04;4.72;;;1.20;;
20320;SDS011;10318;47.674;9.052;2022-10-22T15:26:31;7.60;;;1.50;;
20320;SDS011;10318;47.674;9.052;2022-10-22T15:28:58;6.15;;;1.60;;
20320;SDS011;10318;47.674;9.052;2022-10-22T15:31:47;4.10;;;1.10;;
20320;SDS011;10318;47.674;9.052;2022-10-22T15:34:21;5.35;;;1.25;;
20320;SDS011;10318;47.674;9.052;2022-10-22T15:36:48;10.23;;;1.10;;
20320;SDS011;10318;47.674;9.052;2022-10-22T15:39:15;3.40;;;0.85;;
20320;SDS011;10318;47.674;9.052;2022-10-22T15:41:42;4.93;;;0.93;;
20320;SDS011;10318;47.674;9.052;2022-10-22T15:44:13;6.20;;;1.55;;
20320;SDS011;10318;47.674;9.052;2022-10-22T15:46:40;8.07;;;0.73;;
20320;SDS011;10318;47.674;9.052;2022-10-22T15:49:07;5.95;;;1.30;;
20320;SDS011;10318;47.674;9.052;2022-10-22T15:51:34;8.90;;;1.52;;
20320;SDS011;10318;47.674;9.052;2022-10-22T15:54:00;2.78;;;0.95;;
20320;SDS011;10318;47.674;9.052;2022-10-22T15:56:31;9.07;;;1.10;;
20320;SDS011;10318;47.674;9.052;2022-10-22T15:59:00;1.52;;;0.80;;
20320;SDS011;10318;47.674;9.052;2022-10-22T16:01:29;3.47;;;0.73;;
20320;SDS011;10318;47.674;9.052;2022-10-22T16:03:56;4.05;;;0.93;;
20320;SDS011;10318;47.674;9.052;2022-10-22T16:06:29;7.50;;;1.02;;
20320;SDS011;10318;47.674;9.052;2022-10-22T16:08:56;5.82;;;0.95;;
20320;SDS011;10318;47.674;9.052;2022-10-22T16:11:23;3.25;;;0.68;;
20320;SDS011;10318;47.674;9.052;2022-10-22T16:13:57;6.60;;;0.82;;
20320;SDS011;10318;47.674;9.052;2022-10-22T16:16:25;11.30;;;1.27;;
20320;SDS011;10318;47.674;9.052;2022-10-22T16:18:52;6.55;;;1.23;;
20320;SDS011;10318;47.674;9.052;2022-10-22T16:21:19;7.13;;;1.08;;
20320;SDS011;10318;47.674;9.052;2022-10-22T16:23:45;4.13;;;0.85;;
20320;SDS011;10318;47.674;9.052;2022-10-22T16:26:12;6.30;;;0.85;;
20320;SDS011;10318;47.674;9.052;2022-10-22T16:28:40;4.53;;;0.93;;
20320;SDS011;10318;47.674;9.052;2022-10-22T16:31:08;6.78;;;1.23;;
20320;SDS011;10318;47.674;9.052;2022-10-22T16:33:35;5.68;;;1.10;;
20320;SDS011;10318;47.674;9.052;2022-10-22T16:36:10;5.30;;;1.00;;
20320;SDS011;10318;47.674;9.052;2022-10-22T16:38:37;3.53;;;0.93;;